Time;durP1;ratioP1;P1;durP2;ratioP2;P2;SDS_P1;SDS_P2;PMS_P1;PMS_P2;Temp;Humidity;BMP_temperature;BMP_pressure;BME280_temperature;BME280_humidity;BME280_pressure;Samples;Min_cycle;Max_cycle;Signal;HPM_P1;HPM_P2
2022/03/10 00:00:13;;;;;;;;;;;1.80;74.10;;;;;;5174615;28;19925;-31
2022/03/10 00:02:46;;;;;;;;;;;1.70;74.50;;;;;;5163214;28;19932;-31
2022/03/10 00:05:18;;;;;;;;;;;1.70;74.50;;;;;;5171076;28;20113;-31
2022/03/10 00:07:50;;;;;;;;;;;1.70;74.20;;;;;;5169039;28;19926;-31
2022/03/10 00:10:23;;;;;;;;;;;1.60;74.10;;;;;;5142447;23;19925;-76
2022/03/10 00:12:55;;;;;;;;;;;1.60;74.70;;;;;;5126945;28;19932;-76
2022/03/10 00:15:28;;;;;;;;;;;1.60;73.90;;;;;;5149386;28;19921;-77
2022/03/10 00:18:02;;;;;;;;;;;1.60;74.80;;;;;;5151483;28;19933;-76
2022/03/10 00:20:34;;;;;;;;;;;1.60;75.30;;;;;;5149138;28;19930;-76
2022/03/10 00:23:06;;;;;;;;;;;1.60;75.50;;;;;;5150734;28;19926;-76
2022/03/10 00:25:39;;;;;;;;;;;1.60;75.50;;;;;;5175846;23;19929;-31
2022/03/10 00:28:11;;;;;;;;;;;1.50;75.20;;;;;;5163689;28;19932;-31
2022/03/10 00:30:44;;;;;;;;;;;1.50;75.20;;;;;;5163214;28;20268;-31
2022/03/10 00:33:16;;;;;;;;;;;1.60;75.50;;;;;;5158318;28;20371;-31
2022/03/10 00:35:48;;;;;;;;;;;1.60;75.60;;;;;;5159279;28;19922;-31
2022/03/10 00:38:22;;;;;;;;;;;1.60;74.60;;;;;;5185093;23;19925;-82
2022/03/10 00:40:54;;;;;;;;;;;1.50;74.90;;;;;;5185147;28;20396;-81
2022/03/10 00:43:26;;;;;;;;;;;1.60;75.50;;;;;;5178785;28;19928;-82
2022/03/10 00:45:59;;;;;;;;;;;1.50;75.20;;;;;;5171220;28;19929;-81
2022/03/10 00:48:32;;;;;;;;;;;1.90;75.30;;;;;;5171258;28;19940;-81
2022/03/10 00:51:04;;;;;;;;;;;1.40;75.20;;;;;;5177669;28;19929;-82
2022/03/10 00:53:36;;;;;;;;;;;1.40;75.50;;;;;;5143194;28;19921;-83
2022/03/10 00:56:11;;;;;;;;;;;1.50;75.30;;;;;;5160789;28;21172;-82
2022/03/10 00:58:44;;;;;;;;;;;1.40;75.30;;;;;;5152475;28;19925;-83
2022/03/10 01:01:16;;;;;;;;;;;1.30;74.70;;;;;;5171213;28;20545;-82
2022/03/10 01:03:48;;;;;;;;;;;1.40;74.90;;;;;;5165170;28;19925;-82
2022/03/10 01:06:20;;;;;;;;;;;3.00;76.20;;;;;;5183798;28;19944;-82
2022/03/10 01:08:53;;;;;;;;;;;1.40;75.20;;;;;;5184555;28;19948;-82
2022/03/10 01:11:25;;;;;;;;;;;1.30;75.10;;;;;;5179406;28;19925;-82
2022/03/10 01:13:57;;;;;;;;;;;1.30;75.40;;;;;;5146646;28;20650;-82
2022/03/10 01:16:29;;;;;;;;;;;1.30;76.00;;;;;;5160944;28;19936;-82
2022/03/10 01:19:02;;;;;;;;;;;1.30;76.00;;;;;;5173804;28;19925;-82
2022/03/10 01:21:34;;;;;;;;;;;1.30;74.50;;;;;;5163467;28;19940;-82
2022/03/10 01:24:07;;;;;;;;;;;1.30;74.60;;;;;;5162048;28;19921;-82
2022/03/10 01:26:39;;;;;;;;;;;1.20;76.10;;;;;;5171685;28;20292;-82
2022/03/10 01:29:13;;;;;;;;;;;1.10;75.60;;;;;;5163038;28;19925;-82
2022/03/10 01:31:45;;;;;;;;;;;1.20;76.10;;;;;;5169347;28;19936;-82
2022/03/10 01:34:18;;;;;;;;;;;0.20;75.70;;;;;;5176720;28;19925;-82
2022/03/10 01:36:50;;;;;;;;;;;2.00;76.80;;;;;;5179685;28;19925;-83
2022/03/10 01:39:23;;;;;;;;;;;1.20;75.60;;;;;;5161938;28;19933;-81
2022/03/10 01:41:55;;;;;;;;;;;1.10;75.70;;;;;;5182313;28;19925;-81
2022/03/10 01:44:28;;;;;;;;;;;1.40;76.50;;;;;;5179338;28;19925;-82
2022/03/10 01:47:01;;;;;;;;;;;1.10;75.90;;;;;;5161541;28;20387;-82
2022/03/10 01:49:34;;;;;;;;;;;1.20;76.70;;;;;;5173519;28;20556;-82
2022/03/10 01:52:06;;;;;;;;;;;3.30;77.60;;;;;;5180564;28;19936;-82
2022/03/10 01:54:42;;;;;;;;;;;1.10;76.00;;;;;;5165314;28;19925;-82
2022/03/10 01:57:15;;;;;;;;;;;1.10;76.20;;;;;;5182391;28;20419;-82
2022/03/10 01:59:47;;;;;;;;;;;1.10;76.00;;;;;;5158973;28;19925;-82
2022/03/10 02:02:19;;;;;;;;;;;2.90;77.40;;;;;;5144566;28;19921;-82
2022/03/10 02:04:52;;;;;;;;;;;1.00;75.80;;;;;;5168399;28;19932;-81
2022/03/10 02:10:19;;;;;;;;;;;0.90;76.00;;;;;;5181817;28;20508;-82
2022/03/10 02:12:52;;;;;;;;;;;1.00;76.40;;;;;;5140234;28;19925;-82
2022/03/10 02:18:22;;;;;;;;;;;0.80;75.80;;;;;;5180557;28;19980;-82
2022/03/10 02:20:54;;;;;;;;;;;0.80;76.50;;;;;;5180313;28;19929;-82
2022/03/10 02:23:26;;;;;;;;;;;0.90;75.90;;;;;;5179444;28;19925;-82
2022/03/10 02:25:59;;;;;;;;;;;1.00;76.30;;;;;;5179423;28;20826;-82
2022/03/10 02:28:32;;;;;;;;;;;1.00;75.70;;;;;;5161295;28;20009;-82
2022/03/10 02:31:05;;;;;;;;;;;1.00;76.40;;;;;;5174838;28;20308;-82
2022/03/10 02:33:37;;;;;;;;;;;1.00;76.40;;;;;;5178468;28;19925;-82
2022/03/10 02:36:10;;;;;;;;;;;0.90;75.40;;;;;;5153036;28;19936;-82
2022/03/10 02:38:42;;;;;;;;;;;0.90;75.60;;;;;;5180030;28;19927;-82
2022/03/10 02:41:14;;;;;;;;;;;0.90;76.30;;;;;;5158529;28;19921;-82
2022/03/10 02:43:47;;;;;;;;;;;0.90;75.90;;;;;;5161197;28;19932;-81
2022/03/10 02:46:19;;;;;;;;;;;0.80;76.10;;;;;;5151539;28;19944;-82
2022/03/10 02:48:51;;;;;;;;;;;1.50;76.70;;;;;;5174666;28;19920;-83
2022/03/10 02:51:24;;;;;;;;;;;0.90;75.70;;;;;;5174318;28;19921;-82
2022/03/10 02:53:56;;;;;;;;;;;0.80;76.00;;;;;;5135721;28;19925;-83
2022/03/10 02:56:29;;;;;;;;;;;1.90;76.60;;;;;;5148485;28;19932;-82
2022/03/10 02:59:02;;;;;;;;;;;0.80;76.40;;;;;;5142511;28;19925;-82
2022/03/10 03:01:34;;;;;;;;;;;0.70;76.50;;;;;;5151641;28;19936;-81
2022/03/10 03:04:06;;;;;;;;;;;0.80;76.40;;;;;;5138732;28;19940;-82
2022/03/10 03:06:39;;;;;;;;;;;0.80;75.60;;;;;;5170281;28;19928;-81
2022/03/10 03:09:11;;;;;;;;;;;0.80;76.20;;;;;;5167989;28;20542;-83
2022/03/10 03:11:43;;;;;;;;;;;0.70;76.80;;;;;;5157195;28;20157;-82
2022/03/10 03:14:16;;;;;;;;;;;0.50;76.40;;;;;;5160890;28;19932;-82
2022/03/10 03:16:54;;;;;;;;;;;0.70;77.10;;;;;;5131462;28;19932;-82
2022/03/10 03:19:27;;;;;;;;;;;0.60;76.10;;;;;;5128975;28;19925;-82
2022/03/10 03:22:00;;;;;;;;;;;0.10;75.80;;;;;;5158354;28;20368;-82
2022/03/10 03:24:32;;;;;;;;;;;0.70;77.00;;;;;;5157175;28;19925;-82
2022/03/10 03:27:05;;;;;;;;;;;2.80;78.50;;;;;;5140503;28;19936;-82
2022/03/10 03:29:37;;;;;;;;;;;0.60;76.50;;;;;;5147747;28;19929;-81
2022/03/10 03:32:09;;;;;;;;;;;0.60;76.70;;;;;;5130454;28;21100;-82
2022/03/10 03:34:42;;;;;;;;;;;0.60;76.30;;;;;;5140368;28;19933;-81
2022/03/10 03:37:14;;;;;;;;;;;0.60;76.60;;;;;;5161229;28;19926;-81
2022/03/10 03:39:46;;;;;;;;;;;0.60;76.40;;;;;;5141712;28;19929;-81
2022/03/10 03:42:19;;;;;;;;;;;0.60;75.90;;;;;;5163884;28;19921;-82
2022/03/10 03:44:51;;;;;;;;;;;0.60;76.20;;;;;;5137074;28;20300;-82
2022/03/10 03:47:24;;;;;;;;;;;0.60;76.70;;;;;;5137409;28;19929;-81
2022/03/10 03:49:56;;;;;;;;;;;0.60;75.40;;;;;;5143565;28;19937;-81
2022/03/10 03:52:28;;;;;;;;;;;0.60;75.40;;;;;;5177467;28;19929;-81
2022/03/10 03:55:01;;;;;;;;;;;0.20;76.50;;;;;;5141565;28;19925;-82
2022/03/10 03:57:33;;;;;;;;;;;0.50;76.50;;;;;;5162236;28;19936;-81
2022/03/10 04:00:07;;;;;;;;;;;1.80;77.70;;;;;;5146873;28;19929;-81
2022/03/10 04:02:42;;;;;;;;;;;0.50;75.70;;;;;;5175835;28;19925;-81
2022/03/10 04:05:15;;;;;;;;;;;0.40;75.60;;;;;;5184359;28;19924;-82
2022/03/10 04:07:47;;;;;;;;;;;0.40;76.50;;;;;;5179687;28;19936;-81
2022/03/10 04:10:20;;;;;;;;;;;0.30;76.80;;;;;;5146070;28;20389;-82
2022/03/10 04:12:52;;;;;;;;;;;0.80;76.80;;;;;;5154362;28;20595;-81
2022/03/10 04:15:24;;;;;;;;;;;0.20;77.00;;;;;;5167555;28;19925;-81
2022/03/10 04:17:57;;;;;;;;;;;0.20;77.20;;;;;;5125291;28;22009;-82
2022/03/10 04:20:30;;;;;;;;;;;0.10;76.50;;;;;;5162399;28;20550;-82
2022/03/10 04:23:02;;;;;;;;;;;0.10;77.50;;;;;;5151209;28;19936;-81
2022/03/10 04:25:35;;;;;;;;;;;0.00;77.10;;;;;;5161239;28;19929;-82
2022/03/10 04:28:07;;;;;;;;;;;1.50;78.20;;;;;;5180674;28;19925;-82
2022/03/10 04:30:41;;;;;;;;;;;-0.10;77.10;;;;;;5164464;28;19930;-81
2022/03/10 04:33:13;;;;;;;;;;;-0.10;77.10;;;;;;5156272;28;20408;-81
2022/03/10 04:35:46;;;;;;;;;;;-0.10;76.90;;;;;;5176880;28;19937;-82
2022/03/10 04:38:18;;;;;;;;;;;-0.40;77.20;;;;;;5171178;28;19931;-82
2022/03/10 04:40:50;;;;;;;;;;;-0.20;77.80;;;;;;5184832;28;20294;-82
2022/03/10 04:43:23;;;;;;;;;;;-0.10;78.20;;;;;;5184521;28;19925;-82
2022/03/10 04:45:55;;;;;;;;;;;-0.30;79.00;;;;;;5158431;28;19929;-80
2022/03/10 04:48:30;;;;;;;;;;;-0.30;78.60;;;;;;5183559;28;19936;-82
2022/03/10 04:51:02;;;;;;;;;;;-0.30;78.50;;;;;;5183600;28;19921;-81
2022/03/10 04:53:35;;;;;;;;;;;0.00;78.90;;;;;;5166397;28;19932;-81
2022/03/10 04:56:07;;;;;;;;;;;-0.50;78.30;;;;;;5176068;28;19926;-81
2022/03/10 04:58:40;;;;;;;;;;;-0.20;78.40;;;;;;5182851;28;19936;-81
2022/03/10 05:01:12;;;;;;;;;;;-0.40;78.80;;;;;;5150411;28;19925;-82
2022/03/10 05:03:44;;;;;;;;;;;-0.40;79.20;;;;;;5158903;28;20258;-82
2022/03/10 05:06:17;;;;;;;;;;;-0.90;79.20;;;;;;5119449;28;19925;-82
2022/03/10 05:08:50;;;;;;;;;;;-0.60;79.50;;;;;;5162512;28;19925;-81
2022/03/10 05:11:22;;;;;;;;;;;-0.60;79.60;;;;;;5159927;28;20436;-82
2022/03/10 05:13:58;;;;;;;;;;;-0.30;79.50;;;;;;5156158;28;19976;-82
2022/03/10 05:16:30;;;;;;;;;;;-0.60;79.60;;;;;;5140470;28;20035;-80
2022/03/10 05:19:02;;;;;;;;;;;-0.70;79.20;;;;;;5144326;28;19932;-81
2022/03/10 05:21:36;;;;;;;;;;;-0.70;79.30;;;;;;5144506;28;19939;-81
2022/03/10 05:24:09;;;;;;;;;;;-0.70;79.30;;;;;;5157447;28;19928;-81
2022/03/10 05:26:42;;;;;;;;;;;-0.80;79.30;;;;;;5180577;28;19930;-81
2022/03/10 05:29:19;;;;;;;;;;;-0.70;79.50;;;;;;5180638;28;20141;-82
2022/03/10 05:31:55;;;;;;;;;;;-0.80;79.60;;;;;;5140249;28;19936;-82
2022/03/10 05:34:27;;;;;;;;;;;-0.80;79.50;;;;;;5175305;28;19921;-81
2022/03/10 05:37:04;;;;;;;;;;;-0.90;79.40;;;;;;5140340;28;20457;-82
2022/03/10 05:39:45;;;;;;;;;;;-0.80;80.30;;;;;;5131141;28;20246;-81
2022/03/10 05:42:23;;;;;;;;;;;-0.80;80.00;;;;;;5170559;28;19929;-82
2022/03/10 05:44:55;;;;;;;;;;;-0.80;80.10;;;;;;5141979;28;19940;-81
2022/03/10 05:47:28;;;;;;;;;;;-0.90;80.20;;;;;;5135674;28;19929;-81
2022/03/10 05:50:00;;;;;;;;;;;-0.40;80.30;;;;;;5169606;28;19952;-82
2022/03/10 05:52:33;;;;;;;;;;;-1.10;79.90;;;;;;5173782;28;19948;-82
2022/03/10 05:55:14;;;;;;;;;;;-0.90;80.00;;;;;;5160667;28;20716;-82
2022/03/10 05:57:51;;;;;;;;;;;-0.90;80.00;;;;;;5157408;28;19929;-82
2022/03/10 06:00:24;;;;;;;;;;;-0.90;80.30;;;;;;5160226;28;19922;-81
2022/03/10 06:03:00;;;;;;;;;;;-0.90;79.70;;;;;;5130250;28;19925;-81
2022/03/10 06:05:33;;;;;;;;;;;-0.90;80.00;;;;;;5116612;28;19929;-81
2022/03/10 06:08:08;;;;;;;;;;;-0.90;80.50;;;;;;5119255;28;20443;-81
2022/03/10 06:10:41;;;;;;;;;;;-0.90;80.50;;;;;;5148273;28;19925;-81
2022/03/10 06:16:44;;;;;;;;;;;0.20;80.90;;;;;;5123572;28;19929;-82
2022/03/10 06:19:20;;;;;;;;;;;-0.90;80.90;;;;;;5158033;28;19925;-82
2022/03/10 06:22:06;;;;;;;;;;;-0.80;80.60;;;;;;5127138;28;21760;-82
2022/03/10 06:24:52;;;;;;;;;;;-0.80;80.80;;;;;;5144830;28;19932;-81
2022/03/10 06:27:28;;;;;;;;;;;-0.50;81.10;;;;;;5119552;28;19932;-82
2022/03/10 06:30:05;;;;;;;;;;;-0.30;81.80;;;;;;5116743;28;19932;-83
2022/03/10 06:32:37;;;;;;;;;;;-0.80;81.10;;;;;;5161429;28;19925;-81
2022/03/10 06:35:35;;;;;;;;;;;-0.40;81.20;;;;;;5163135;28;19956;-80
2022/03/10 06:38:10;;;;;;;;;;;-1.00;81.10;;;;;;5138302;28;19932;-81
2022/03/10 06:40:43;;;;;;;;;;;-0.70;81.20;;;;;;5169974;28;19929;-82
2022/03/10 06:43:18;;;;;;;;;;;-0.60;81.10;;;;;;5171230;28;19925;-82
2022/03/10 06:45:50;;;;;;;;;;;-0.60;80.90;;;;;;5174463;28;19925;-81
2022/03/10 06:48:23;;;;;;;;;;;-0.50;81.30;;;;;;5174536;28;19929;-82
2022/03/10 06:50:55;;;;;;;;;;;-0.60;80.90;;;;;;5166253;28;20339;-83
2022/03/10 06:53:28;;;;;;;;;;;-0.30;81.50;;;;;;5170118;28;19955;-82
2022/03/10 06:56:06;;;;;;;;;;;-0.40;81.30;;;;;;5127336;28;19925;-82
2022/03/10 06:58:40;;;;;;;;;;;-0.10;81.30;;;;;;5173857;28;19925;-82
2022/03/10 07:01:12;;;;;;;;;;;-0.10;80.80;;;;;;5155726;28;20507;-84
2022/03/10 07:03:44;;;;;;;;;;;0.00;80.60;;;;;;5174746;28;19925;-82
2022/03/10 07:06:17;;;;;;;;;;;-0.70;80.00;;;;;;5176820;28;19936;-83
2022/03/10 07:08:50;;;;;;;;;;;-0.50;79.30;;;;;;5174628;28;20403;-82
2022/03/10 07:11:23;;;;;;;;;;;0.10;79.80;;;;;;5176706;28;19929;-83
2022/03/10 07:13:56;;;;;;;;;;;0.30;79.90;;;;;;5168663;28;19925;-84
2022/03/10 07:16:28;;;;;;;;;;;0.70;79.80;;;;;;5169009;28;19929;-83
2022/03/10 07:19:01;;;;;;;;;;;0.30;78.70;;;;;;5140443;28;19938;-83
2022/03/10 07:21:33;;;;;;;;;;;0.60;78.90;;;;;;5156767;28;19932;-83
2022/03/10 07:24:06;;;;;;;;;;;0.70;79.10;;;;;;5150304;28;19932;-83
2022/03/10 07:26:39;;;;;;;;;;;0.60;78.50;;;;;;5170007;28;19925;-83
2022/03/10 07:29:11;;;;;;;;;;;0.90;78.80;;;;;;5143114;28;20533;-83
2022/03/10 07:31:43;;;;;;;;;;;1.00;78.70;;;;;;5145039;28;19928;-84
2022/03/10 07:34:22;;;;;;;;;;;1.00;78.00;;;;;;5165100;28;19930;-84
2022/03/10 07:36:57;;;;;;;;;;;1.30;78.30;;;;;;5126256;28;19924;-84
2022/03/10 07:39:33;;;;;;;;;;;1.30;77.70;;;;;;5140258;28;19936;-84
2022/03/10 07:42:11;;;;;;;;;;;1.70;77.50;;;;;;5159365;28;20522;-84
2022/03/10 07:44:55;;;;;;;;;;;1.70;77.30;;;;;;5152998;28;19928;-84
2022/03/10 07:47:33;;;;;;;;;;;1.60;77.10;;;;;;5152298;28;20377;-84
2022/03/10 07:50:07;;;;;;;;;;;1.80;76.80;;;;;;5176107;28;19929;-84
2022/03/10 07:52:42;;;;;;;;;;;1.80;77.00;;;;;;5166972;28;20389;-85
2022/03/10 07:55:14;;;;;;;;;;;1.90;76.80;;;;;;5177820;28;19925;-85
2022/03/10 07:57:47;;;;;;;;;;;2.00;76.30;;;;;;5167851;28;19929;-85
2022/03/10 08:00:19;;;;;;;;;;;2.10;76.40;;;;;;5175882;28;19929;-85
2022/03/10 08:02:52;;;;;;;;;;;2.20;75.80;;;;;;5176237;28;20046;-85
2022/03/10 08:05:24;;;;;;;;;;;2.30;75.40;;;;;;5182320;28;20898;-85
2022/03/10 08:07:56;;;;;;;;;;;2.50;75.20;;;;;;5178090;28;19921;-85
2022/03/10 08:10:28;;;;;;;;;;;2.70;75.50;;;;;;5178098;28;19925;-86
2022/03/10 08:13:01;;;;;;;;;;;2.70;74.50;;;;;;5179462;28;20528;-85
2022/03/10 08:15:33;;;;;;;;;;;3.10;73.80;;;;;;5176938;28;19936;-85
2022/03/10 08:18:06;;;;;;;;;;;3.10;73.30;;;;;;5157253;28;19925;-86
2022/03/10 08:20:39;;;;;;;;;;;3.30;72.30;;;;;;5175677;28;20082;-85
2022/03/10 08:23:12;;;;;;;;;;;3.50;71.60;;;;;;5162060;28;19921;-85
2022/03/10 08:25:44;;;;;;;;;;;3.50;71.20;;;;;;5177276;28;19932;-85
2022/03/10 08:28:17;;;;;;;;;;;3.80;71.10;;;;;;5167716;28;20455;-86
2022/03/10 08:30:49;;;;;;;;;;;3.80;71.10;;;;;;5172463;28;20068;-86
2022/03/10 08:33:22;;;;;;;;;;;3.90;70.20;;;;;;5176396;28;20508;-84
2022/03/10 08:35:54;;;;;;;;;;;4.00;69.10;;;;;;5170275;28;20317;-86
2022/03/10 08:38:29;;;;;;;;;;;4.50;68.40;;;;;;5176659;28;20150;-86
2022/03/10 08:41:02;;;;;;;;;;;4.50;68.60;;;;;;5163398;28;20476;-86
2022/03/10 08:43:34;;;;;;;;;;;4.40;67.70;;;;;;5155654;28;19937;-85
2022/03/10 08:46:07;;;;;;;;;;;4.40;68.70;;;;;;5179693;28;19932;-86
2022/03/10 08:48:40;;;;;;;;;;;4.60;68.10;;;;;;5179931;28;20309;-87
2022/03/10 08:51:12;;;;;;;;;;;5.00;67.50;;;;;;5159797;28;19926;-85
2022/03/10 08:53:45;;;;;;;;;;;4.70;66.50;;;;;;5178785;28;20400;-85
2022/03/10 08:56:17;;;;;;;;;;;4.70;65.90;;;;;;5165255;28;19924;-85
2022/03/10 08:58:49;;;;;;;;;;;4.90;66.70;;;;;;5176393;28;19936;-86
2022/03/10 09:01:22;;;;;;;;;;;4.90;67.00;;;;;;5174490;28;19925;-86
2022/03/10 09:03:56;;;;;;;;;;;5.10;66.30;;;;;;5147382;28;19925;-86
2022/03/10 09:06:32;;;;;;;;;;;5.70;66.30;;;;;;5176646;28;19921;-86
2022/03/10 09:09:04;;;;;;;;;;;5.40;65.60;;;;;;5176201;28;20313;-84
2022/03/10 09:11:38;;;;;;;;;;;5.40;65.80;;;;;;5156941;28;20702;-85
2022/03/10 09:14:10;;;;;;;;;;;5.50;64.70;;;;;;5175431;28;19951;-86
2022/03/10 09:16:42;;;;;;;;;;;5.60;64.40;;;;;;5178905;28;20351;-84
2022/03/10 09:19:15;;;;;;;;;;;5.80;63.90;;;;;;5180025;28;20324;-85
2022/03/10 09:21:47;;;;;;;;;;;5.80;63.90;;;;;;5173464;28;19928;-86
2022/03/10 09:24:20;;;;;;;;;;;6.50;64.20;;;;;;5160136;28;19925;-85
2022/03/10 09:26:52;;;;;;;;;;;6.00;63.70;;;;;;5168939;28;19921;-85
2022/03/10 09:29:24;;;;;;;;;;;6.00;63.90;;;;;;5159093;28;19928;-85
2022/03/10 09:31:57;;;;;;;;;;;6.00;63.80;;;;;;5174715;28;19935;-86
2022/03/10 09:34:29;;;;;;;;;;;6.20;63.70;;;;;;5180622;28;19925;-85
2022/03/10 09:37:01;;;;;;;;;;;7.20;63.80;;;;;;5159723;28;19952;-84
2022/03/10 09:39:33;;;;;;;;;;;6.50;62.50;;;;;;5166610;28;19925;-85
2022/03/10 09:42:08;;;;;;;;;;;6.70;61.00;;;;;;5177083;28;19936;-84
2022/03/10 09:44:43;;;;;;;;;;;6.00;60.90;;;;;;5177889;28;19928;-86
2022/03/10 09:47:15;;;;;;;;;;;7.00;60.90;;;;;;5173054;28;19925;-85
2022/03/10 09:49:48;;;;;;;;;;;9.30;62.50;;;;;;5180623;28;20420;-84
2022/03/10 09:52:21;;;;;;;;;;;5.50;60.10;;;;;;5181788;28;19929;-85
2022/03/10 09:54:54;;;;;;;;;;;7.30;61.10;;;;;;5180932;28;20439;-85
2022/03/10 09:57:27;;;;;;;;;;;7.70;61.70;;;;;;5177542;28;19929;-85
2022/03/10 09:59:59;;;;;;;;;;;7.40;61.70;;;;;;5178084;28;19924;-83
2022/03/10 10:02:32;;;;;;;;;;;7.40;60.50;;;;;;5181666;28;19921;-85
2022/03/10 10:05:20;;;;;;;;;;;7.50;59.50;;;;;;5164664;28;20424;-84
2022/03/10 10:08:02;;;;;;;;;;;7.70;60.20;;;;;;5180813;28;19931;-84
2022/03/10 10:10:36;;;;;;;;;;;7.70;60.50;;;;;;5177891;28;19936;-84
2022/03/10 10:13:28;;;;;;;;;;;7.80;59.50;;;;;;5162195;28;19932;-84
2022/03/10 10:16:04;;;;;;;;;;;7.90;59.60;;;;;;5182219;28;19929;-84
2022/03/10 10:18:38;;;;;;;;;;;8.00;59.60;;;;;;5164091;28;19929;-83
2022/03/10 10:21:20;;;;;;;;;;;8.10;58.50;;;;;;5184769;28;19921;-85
2022/03/10 10:23:54;;;;;;;;;;;8.20;59.60;;;;;;5173436;28;20895;-84
2022/03/10 10:26:30;;;;;;;;;;;8.30;58.40;;;;;;5178344;28;19921;-83
2022/03/10 10:29:03;;;;;;;;;;;8.20;57.80;;;;;;5175350;28;19925;-84
2022/03/10 10:31:37;;;;;;;;;;;8.60;58.10;;;;;;5179180;28;19925;-84
2022/03/10 10:34:10;;;;;;;;;;;8.70;57.70;;;;;;5177619;28;19935;-82
2022/03/10 10:36:43;;;;;;;;;;;8.30;56.20;;;;;;5177481;28;20400;-84
2022/03/10 10:39:17;;;;;;;;;;;8.80;57.20;;;;;;5173849;28;19921;-82
2022/03/10 10:41:50;;;;;;;;;;;8.90;56.80;;;;;;5178436;28;20290;-84
2022/03/10 10:44:23;;;;;;;;;;;9.00;55.90;;;;;;5179238;28;20274;-83
2022/03/10 10:46:58;;;;;;;;;;;9.20;56.10;;;;;;5173976;28;19929;-84
2022/03/10 10:49:35;;;;;;;;;;;9.30;55.10;;;;;;5175929;28;19940;-84
2022/03/10 10:52:11;;;;;;;;;;;10.30;55.10;;;;;;5156352;28;20413;-85
2022/03/10 10:54:45;;;;;;;;;;;9.30;54.90;;;;;;5169089;28;19977;-83
2022/03/10 10:57:21;;;;;;;;;;;9.40;54.00;;;;;;5176934;28;19936;-82
2022/03/10 11:00:08;;;;;;;;;;;9.40;54.60;;;;;;5152513;28;20612;-83
2022/03/10 11:02:42;;;;;;;;;;;9.40;53.80;;;;;;5174809;28;19933;-84
2022/03/10 11:05:14;;;;;;;;;;;10.20;53.80;;;;;;5173712;28;19929;-84
2022/03/10 11:07:47;;;;;;;;;;;10.20;53.10;;;;;;5175167;28;19925;-83
2022/03/10 11:10:20;;;;;;;;;;;9.70;53.40;;;;;;5162105;28;19936;-85
2022/03/10 11:12:52;;;;;;;;;;;9.70;52.50;;;;;;5171701;28;19932;-83
2022/03/10 11:15:25;;;;;;;;;;;9.70;52.20;;;;;;5139385;28;19921;-83
2022/03/10 11:17:58;;;;;;;;;;;10.40;52.90;;;;;;5176258;28;19956;-83
2022/03/10 11:20:32;;;;;;;;;;;9.90;52.80;;;;;;5174043;28;20612;-84
2022/03/10 11:23:36;;;;;;;;;;;9.80;52.90;;;;;;5156483;28;19937;-82
2022/03/10 11:26:12;;;;;;;;;;;9.90;52.40;;;;;;5146272;28;19925;-83
2022/03/10 11:28:46;;;;;;;;;;;9.90;52.30;;;;;;5176329;28;19937;-84
2022/03/10 11:31:19;;;;;;;;;;;9.90;51.20;;;;;;5177347;28;20016;-83
2022/03/10 11:33:52;;;;;;;;;;;9.90;51.40;;;;;;5168726;28;19925;-83
2022/03/10 11:36:29;;;;;;;;;;;9.90;51.30;;;;;;5168774;28;19929;-83
2022/03/10 11:39:04;;;;;;;;;;;10.00;51.50;;;;;;5151668;28;20047;-83
2022/03/10 11:41:44;;;;;;;;;;;10.00;51.90;;;;;;5154954;28;19921;-84
2022/03/10 11:44:20;;;;;;;;;;;10.10;52.20;;;;;;5169806;28;19928;-83
2022/03/10 11:46:57;;;;;;;;;;;10.20;50.40;;;;;;5166684;28;19936;-83
2022/03/10 11:49:38;;;;;;;;;;;10.30;50.70;;;;;;5157299;28;19925;-82
2022/03/10 11:52:21;;;;;;;;;;;10.40;48.10;;;;;;5146773;28;19929;-83
2022/03/10 11:55:05;;;;;;;;;;;10.40;47.80;;;;;;5150068;28;20400;-81
2022/03/10 11:58:04;;;;;;;;;;;10.60;49.20;;;;;;5168466;28;19952;-82
2022/03/10 12:00:47;;;;;;;;;;;10.70;51.40;;;;;;5163159;28;19924;-85
2022/03/10 12:03:29;;;;;;;;;;;10.70;48.00;;;;;;5148563;28;19925;-83
2022/03/10 12:06:07;;;;;;;;;;;10.70;50.60;;;;;;5170559;28;19948;-83
2022/03/10 12:08:42;;;;;;;;;;;10.70;48.30;;;;;;5169135;28;19929;-83
2022/03/10 12:11:15;;;;;;;;;;;10.70;50.00;;;;;;5169753;28;19925;-84
2022/03/10 12:13:49;;;;;;;;;;;10.70;48.20;;;;;;5176079;28;19929;-82
2022/03/10 12:16:23;;;;;;;;;;;10.70;49.10;;;;;;5154776;28;19936;-84
2022/03/10 12:18:56;;;;;;;;;;;10.70;49.20;;;;;;5169341;28;19929;-85
2022/03/10 12:25:11;;;;;;;;;;;10.90;48.50;;;;;;5179126;28;19936;-83
2022/03/10 12:27:48;;;;;;;;;;;10.90;47.70;;;;;;5173439;28;19921;-84
2022/03/10 12:30:28;;;;;;;;;;;10.90;47.90;;;;;;5160381;28;19920;-82
2022/03/10 12:33:00;;;;;;;;;;;10.90;47.30;;;;;;5177945;28;19932;-84
2022/03/10 12:35:35;;;;;;;;;;;10.80;46.60;;;;;;5178490;28;19920;-83
2022/03/10 12:38:08;;;;;;;;;;;11.10;47.60;;;;;;5171337;28;19925;-85
2022/03/10 12:40:41;;;;;;;;;;;10.90;46.70;;;;;;5155800;28;20310;-82
2022/03/10 12:43:13;;;;;;;;;;;10.90;47.80;;;;;;5164829;28;19925;-83
2022/03/10 12:45:46;;;;;;;;;;;11.00;47.10;;;;;;5167269;28;20332;-84
2022/03/10 12:48:27;;;;;;;;;;;11.00;47.40;;;;;;5168991;28;19929;-84
2022/03/10 12:51:00;;;;;;;;;;;11.00;48.00;;;;;;5154190;28;19924;-83
2022/03/10 12:53:33;;;;;;;;;;;11.00;46.30;;;;;;5152750;28;20435;-83
2022/03/10 12:56:06;;;;;;;;;;;11.00;48.30;;;;;;5138974;28;19932;-85
2022/03/10 12:58:39;;;;;;;;;;;10.90;49.10;;;;;;5140941;28;19940;-84
2022/03/10 13:01:11;;;;;;;;;;;11.00;47.30;;;;;;5156879;28;19924;-85
2022/03/10 13:03:48;;;;;;;;;;;10.90;44.90;;;;;;5162928;28;19929;-84
2022/03/10 13:06:22;;;;;;;;;;;10.90;43.80;;;;;;5148211;28;20262;-84
2022/03/10 13:08:58;;;;;;;;;;;10.90;44.00;;;;;;5141456;28;19936;-84
2022/03/10 13:11:32;;;;;;;;;;;10.80;48.40;;;;;;5162425;28;19943;-85
2022/03/10 13:14:12;;;;;;;;;;;10.90;47.20;;;;;;5144934;28;20000;-84
2022/03/10 13:16:46;;;;;;;;;;;10.90;46.40;;;;;;5153020;28;19935;-84
2022/03/10 13:19:23;;;;;;;;;;;10.90;44.80;;;;;;5156178;28;19925;-83
2022/03/10 13:21:57;;;;;;;;;;;10.90;46.70;;;;;;5167070;28;20380;-84
2022/03/10 13:24:35;;;;;;;;;;;11.00;47.30;;;;;;5171776;28;19928;-85
2022/03/10 13:27:12;;;;;;;;;;;11.00;48.60;;;;;;5163608;28;19924;-83
2022/03/10 13:29:47;;;;;;;;;;;11.00;45.10;;;;;;5163389;28;19925;-85
2022/03/10 13:32:20;;;;;;;;;;;11.00;47.30;;;;;;5134070;28;19929;-84
2022/03/10 13:34:58;;;;;;;;;;;11.00;48.00;;;;;;5162718;28;20400;-86
2022/03/10 13:37:31;;;;;;;;;;;11.00;43.10;;;;;;5160363;28;20317;-85
2022/03/10 13:40:03;;;;;;;;;;;11.10;44.00;;;;;;5155354;28;19930;-85
2022/03/10 13:42:36;;;;;;;;;;;11.10;43.80;;;;;;5141074;28;19929;-83
2022/03/10 13:45:09;;;;;;;;;;;11.10;43.60;;;;;;5149313;28;20972;-84
2022/03/10 13:47:48;;;;;;;;;;;11.10;41.10;;;;;;5132709;28;19925;-84
2022/03/10 13:50:27;;;;;;;;;;;11.10;44.90;;;;;;5137796;28;19929;-83
2022/03/10 13:53:01;;;;;;;;;;;11.10;43.80;;;;;;5148614;28;19932;-85
2022/03/10 13:55:37;;;;;;;;;;;11.10;42.40;;;;;;5166829;28;20447;-83
2022/03/10 13:58:10;;;;;;;;;;;11.20;43.30;;;;;;5156280;28;19937;-85
2022/03/10 14:00:46;;;;;;;;;;;11.20;43.70;;;;;;5166310;28;20789;-81
2022/03/10 14:03:20;;;;;;;;;;;11.20;41.40;;;;;;5137316;28;19956;-85
2022/03/10 14:06:00;;;;;;;;;;;11.20;42.50;;;;;;5156146;28;19948;-84
2022/03/10 14:08:35;;;;;;;;;;;11.20;42.00;;;;;;5137649;28;19932;-82
2022/03/10 14:11:10;;;;;;;;;;;11.20;42.20;;;;;;5160936;28;19925;-88
2022/03/10 14:13:46;;;;;;;;;;;11.30;43.40;;;;;;5142039;28;19929;-85
2022/03/10 14:16:23;;;;;;;;;;;11.30;41.90;;;;;;5124694;28;19925;-84
2022/03/10 14:18:56;;;;;;;;;;;11.20;41.40;;;;;;5158443;28;19932;-83
2022/03/10 14:21:28;;;;;;;;;;;11.20;41.90;;;;;;5129329;28;19930;-84
2022/03/10 14:24:02;;;;;;;;;;;11.20;40.50;;;;;;5157000;28;19926;-83
2022/03/10 14:26:41;;;;;;;;;;;11.30;43.40;;;;;;5121604;28;19960;-84
2022/03/10 14:29:15;;;;;;;;;;;11.30;41.80;;;;;;5164857;28;19929;-84
2022/03/10 14:31:48;;;;;;;;;;;11.50;41.80;;;;;;5170527;28;19925;-84
2022/03/10 14:34:20;;;;;;;;;;;11.40;43.00;;;;;;5131744;28;20873;-84
2022/03/10 14:36:53;;;;;;;;;;;11.50;41.80;;;;;;5168637;28;19924;-82
2022/03/10 14:39:34;;;;;;;;;;;11.40;42.70;;;;;;5172735;28;19936;-84
2022/03/10 14:42:09;;;;;;;;;;;11.50;43.80;;;;;;5149084;28;19932;-85
2022/03/10 14:44:44;;;;;;;;;;;11.50;41.90;;;;;;5158427;28;19928;-84
2022/03/10 14:47:19;;;;;;;;;;;11.60;43.00;;;;;;5146302;28;19936;-84
2022/03/10 14:49:52;;;;;;;;;;;11.60;42.10;;;;;;5128636;28;19924;-85
2022/03/10 14:52:28;;;;;;;;;;;11.60;41.10;;;;;;5162361;28;19929;-87
2022/03/10 14:55:00;;;;;;;;;;;11.50;42.30;;;;;;5140985;28;20013;-86
2022/03/10 14:57:33;;;;;;;;;;;11.60;44.10;;;;;;5169253;28;19936;-86
2022/03/10 15:00:08;;;;;;;;;;;11.60;45.90;;;;;;5164581;28;20055;-85
2022/03/10 15:02:41;;;;;;;;;;;11.60;44.20;;;;;;5168792;28;19936;-87
2022/03/10 15:05:16;;;;;;;;;;;11.60;44.30;;;;;;5152215;28;20416;-83
2022/03/10 15:07:48;;;;;;;;;;;11.60;43.70;;;;;;5174200;28;19929;-85
2022/03/10 15:10:21;;;;;;;;;;;11.50;43.00;;;;;;5171262;28;19932;-87
2022/03/10 15:12:54;;;;;;;;;;;11.50;44.80;;;;;;5176574;28;19918;-82
2022/03/10 15:15:28;;;;;;;;;;;11.50;43.40;;;;;;5180465;28;19936;-85